Terminal Aerodrome Forecast
Issued by NWS Jackson, MS

Home | Current Version | Previous Version | Text Only | Print | Product List | Glossary On
Versions: 1 2 3 4 5 6 7 8 9 10 11 12 13
013
FTUS44 KJAN 241934 AAA
TAFMEI
TAF AMD
KMEI 241934Z 2420/2518 34005KT P6SM VCTS SCT050CB BKN120
     FM242300 01005KT P6SM SCT070=

USA.gov is the U.S. government's official web portal to all federal, state and local government web resources and services.